North River — WYR2549 — position and weather

sailwx.info

Track history (hours):
 
Tides and Currents Weather Stations Pressure Air Temp Water Temp Dewpoint Dewpoint Depression Visibility Wind Speed Wind Dir Waves Ship Positions

North River

Owner: CITY OF NEW YORK, Brooklyn, NY. More information available from US FCC via Universal Licensing System and Coast Guard Vessel Documentation Center.

Last reported at 2015-Apr-15 16:33 UTC. Time now 2015-Jul-05 09:33 UTC.
Position N 40°39' W 074°07'.
Warning: this ship's position is months out of date.

Length 78 m.

Type: Tanker. MMSI: 367074110.

Date/timePositionNaut miles runAvg speedWind from/ knotsBaromVisibWave heightAir tempDewpointWater temp
2015-Apr-15 16:33N 40°39' W 074°07'9 8.6
2015-Apr-15 15:33N 40°44' W 073°58'4 3.2
2015-Apr-15 14:21N 40°47' W 073°55'0 0.0
2015-Apr-13 18:21N 40°47' W 073°55'4 2.0
2015-Apr-13 16:33N 40°48' W 073°50'3 2.6
2015-Apr-13 15:33N 40°47' W 073°54'2 0.0
2015-Apr-11 19:32N 40°47' W 073°56'10 9.9
2015-Apr-11 18:33N 40°39' W 074°03'3 3.3
2015-Apr-11 17:33N 40°38' W 074°08'0 0.0
2015-Apr-11 16:33N 40°38' W 074°08'4 3.6
2015-Apr-11 15:33N 40°39' W 074°03'1 0.6
2015-Apr-11 14:33N 40°39' W 074°02'0 0.5
2015-Apr-11 13:33N 40°39' W 074°02'1010.0
2015-Apr-11 12:33N 40°48' W 073°55'1 1.1
2015-Apr-11 11:33N 40°47' W 073°54'0 0.0
2015-Apr-10 18:04N 40°47' W 073°54'1 2.6
2015-Apr-10 17:33N 40°47' W 073°55'0 0.0
2015-Apr-10 15:30N 40°47' W 073°55'4 3.9
2015-Apr-10 14:33N 40°48' W 073°50'0 0.1
2015-Apr-10 13:33N 40°48' W 073°50'3 2.6
2015-Apr-10 12:33N 40°47' W 073°54'0 0.0
2015-Apr-10 11:34N 40°47' W 073°54'0 0.0
2015-Apr-10 00:30N 40°47' W 073°53'7 7.7
2015-Apr-09 23:33N 40°42' W 074°00'8 8.5
2015-Apr-09 22:33N 40°34' W 073°56'5 5.2
2015-Apr-09 21:33N 40°35' W 073°50'0 0.0
2015-Apr-09 20:34N 40°35' W 073°50'4 3.1
2015-Apr-09 19:24N 40°38' W 073°52'0 0.0
2015-Apr-09 17:29N 40°38' W 073°52'4 3.9
2015-Apr-09 16:33N 40°35' W 073°50'0 0.0
2015-Apr-09 15:34N 40°35' W 073°50'1 1.1
2015-Apr-09 14:32N 40°35' W 073°51'9 9.4
2015-Apr-09 13:34N 40°38' W 074°02'1211.7
2015-Apr-09 12:33N 40°48' W 073°54'1 1.3
2015-Apr-09 11:33N 40°47' W 073°54'  
2015-Apr-06 20:17N 40°47' W 073°54'1 1.2
2015-Apr-06 19:16N 40°48' W 073°53'0 0.0
2015-Apr-06 18:32N 40°48' W 073°53'2 2.2
2015-Apr-06 17:33N 40°48' W 073°50'0 0.0
2015-Apr-06 16:33N 40°48' W 073°50'4 3.7
2015-Apr-06 15:33N 40°47' W 073°55'0 0.0
2015-Apr-06 14:15N 40°47' W 073°55'0 0.0
2015-Apr-06 13:32N 40°47' W 073°55'0 0.2
2015-Apr-06 12:31N 40°47' W 073°55'1 1.2
2015-Apr-06 11:33N 40°47' W 073°54'  
Track history (hours):
 
Tides and Currents Weather Stations Pressure Air Temp Water Temp Dewpoint Dewpoint Depression Visibility Wind Speed Wind Dir Waves Ship Positions

North River

Owner: CITY OF NEW YORK, Brooklyn, NY. More information available from US FCC via Universal Licensing System and Coast Guard Vessel Documentation Center.

Last reported at 2015-Apr-15 16:33 UTC. Time now 2015-Jul-05 09:33 UTC.
Position N 40°39' W 074°07'.
Warning: this ship's position is months out of date.

Length 78 m.

Type: Tanker. MMSI: 367074110.

Date/timePositionNaut miles runAvg speedWind from/ knotsBaromVisibWave heightAir tempDewpointWater temp
2015-Apr-15 16:33N 40°39' W 074°07'9 8.6
2015-Apr-15 15:33N 40°44' W 073°58'4 3.2
2015-Apr-15 14:21N 40°47' W 073°55'0 0.0
2015-Apr-13 18:21N 40°47' W 073°55'4 2.0
2015-Apr-13 16:33N 40°48' W 073°50'3 2.6
2015-Apr-13 15:33N 40°47' W 073°54'2 0.0
2015-Apr-11 19:32N 40°47' W 073°56'10 9.9
2015-Apr-11 18:33N 40°39' W 074°03'3 3.3
2015-Apr-11 17:33N 40°38' W 074°08'0 0.0
2015-Apr-11 16:33N 40°38' W 074°08'4 3.6
2015-Apr-11 15:33N 40°39' W 074°03'1 0.6
2015-Apr-11 14:33N 40°39' W 074°02'0 0.5
2015-Apr-11 13:33N 40°39' W 074°02'1010.0
2015-Apr-11 12:33N 40°48' W 073°55'1 1.1
2015-Apr-11 11:33N 40°47' W 073°54'0 0.0
2015-Apr-10 18:04N 40°47' W 073°54'1 2.6
2015-Apr-10 17:33N 40°47' W 073°55'0 0.0
2015-Apr-10 15:30N 40°47' W 073°55'4 3.9
2015-Apr-10 14:33N 40°48' W 073°50'0 0.1
2015-Apr-10 13:33N 40°48' W 073°50'3 2.6
2015-Apr-10 12:33N 40°47' W 073°54'0 0.0
2015-Apr-10 11:34N 40°47' W 073°54'0 0.0
2015-Apr-10 00:30N 40°47' W 073°53'7 7.7
2015-Apr-09 23:33N 40°42' W 074°00'8 8.5
2015-Apr-09 22:33N 40°34' W 073°56'5 5.2
2015-Apr-09 21:33N 40°35' W 073°50'0 0.0
2015-Apr-09 20:34N 40°35' W 073°50'4 3.1
2015-Apr-09 19:24N 40°38' W 073°52'0 0.0
2015-Apr-09 17:29N 40°38' W 073°52'4 3.9
2015-Apr-09 16:33N 40°35' W 073°50'0 0.0
2015-Apr-09 15:34N 40°35' W 073°50'1 1.1
2015-Apr-09 14:32N 40°35' W 073°51'9 9.4
2015-Apr-09 13:34N 40°38' W 074°02'1211.7
2015-Apr-09 12:33N 40°48' W 073°54'1 1.3
2015-Apr-09 11:33N 40°47' W 073°54'  
2015-Apr-06 20:17N 40°47' W 073°54'1 1.2
2015-Apr-06 19:16N 40°48' W 073°53'0 0.0
2015-Apr-06 18:32N 40°48' W 073°53'2 2.2
2015-Apr-06 17:33N 40°48' W 073°50'0 0.0
2015-Apr-06 16:33N 40°48' W 073°50'4 3.7
2015-Apr-06 15:33N 40°47' W 073°55'0 0.0
2015-Apr-06 14:15N 40°47' W 073°55'0 0.0
2015-Apr-06 13:32N 40°47' W 073°55'0 0.2
2015-Apr-06 12:31N 40°47' W 073°55'1 1.2
2015-Apr-06 11:33N 40°47' W 073°54'  

Dump ship's entire track history